Time;durP1;ratioP1;P1;durP2;ratioP2;P2;SDS_P1;SDS_P2;PMS_P1;PMS_P2;Temp;Humidity;BMP_temperature;BMP_pressure;BME280_temperature;BME280_humidity;BME280_pressure;Samples;Min_cycle;Max_cycle;Signal;HPM_P1;HPM_P2
2023/01/30 00:01:16;;;;;;;7.25;3.05;;;;;;;-140.72;100.00;53145.75;6273467;22;20002;-69
2023/01/30 00:03:42;;;;;;;6.55;3.38;;;;;;;-140.72;100.00;53149.81;6272304;22;20460;-68
2023/01/30 00:06:07;;;;;;;9.13;3.75;;;;;;;-140.72;100.00;53145.75;6272730;22;20000;-68
2023/01/30 00:08:32;;;;;;;7.72;3.60;;;;;;;-140.72;100.00;53151.84;6273050;22;19996;-69
2023/01/30 00:11:04;;;;;;;10.05;3.67;;;;;;;-140.72;100.00;53133.59;6271901;22;20004;-68
2023/01/30 00:13:29;;;;;;;6.03;3.63;;;;;;;-140.72;100.00;53103.16;6273617;22;19999;-68
2023/01/30 00:15:54;;;;;;;4.93;2.78;;;;;;;-140.72;100.00;53121.41;6272169;22;20010;-68
2023/01/30 00:18:20;;;;;;;7.45;3.40;;;;;;;-140.72;100.00;53119.38;6272652;22;20406;-68
2023/01/30 00:20:45;;;;;;;8.43;2.92;;;;;;;-140.72;100.00;53135.63;6272895;22;19995;-69
2023/01/30 00:23:10;;;;;;;5.03;2.70;;;;;;;-140.72;100.00;53135.63;6272949;22;20000;-69
2023/01/30 00:25:36;;;;;;;6.38;2.58;;;;;;;-140.72;100.00;53070.69;6272665;22;20000;-68
2023/01/30 00:28:01;;;;;;;6.00;1.88;;;;;;;-140.72;100.00;53135.63;6272142;22;20042;-67
2023/01/30 00:30:27;;;;;;;3.47;2.15;;;;;;;-140.72;100.00;53109.22;6272572;22;19999;-67
2023/01/30 00:32:54;;;;;;;7.47;3.00;;;;;;;-140.72;100.00;53137.66;6273025;22;20075;-67
2023/01/30 00:35:19;;;;;;;7.57;2.20;;;;;;;-140.72;100.00;53119.38;6272901;22;20008;-68
2023/01/30 00:37:45;;;;;;;8.07;3.53;;;;;;;-140.72;100.00;53125.47;6272485;22;20004;-68
2023/01/30 00:40:14;;;;;;;7.05;2.22;;;;;;;-140.72;100.00;53143.72;6273132;22;20059;-67
2023/01/30 00:48:07;;;;;;;6.07;2.88;;;;;;;-140.72;100.00;53115.31;6273047;22;20471;-68
2023/01/30 00:50:41;;;;;;;3.35;1.88;;;;;;;-140.72;100.00;53141.69;6274110;22;20070;-68
2023/01/30 00:53:11;;;;;;;7.47;2.70;;;;;;;-140.72;100.00;53145.75;6270899;22;20418;-68
2023/01/30 00:55:37;;;;;;;6.22;2.92;;;;;;;-140.72;100.00;53090.97;6273511;22;19995;-68
2023/01/30 00:58:06;;;;;;;5.10;2.53;;;;;;;-140.72;100.00;53123.44;6272900;22;20049;-68
2023/01/30 01:00:31;;;;;;;9.85;2.53;;;;;;;-140.72;100.00;53129.53;6272544;22;20000;-68
2023/01/30 01:02:57;;;;;;;6.35;3.05;;;;;;;-140.72;100.00;53155.91;6272271;22;20057;-67
2023/01/30 01:05:22;;;;;;;9.18;3.33;;;;;;;-140.72;100.00;53121.41;6273301;22;20006;-67
2023/01/30 01:07:48;;;;;;;4.35;2.00;;;;;;;-140.72;100.00;53125.47;6272234;22;20302;-67
2023/01/30 01:10:15;;;;;;;4.68;2.05;;;;;;;-140.72;100.00;53099.09;6273274;22;20003;-68
2023/01/30 01:12:43;;;;;;;5.45;2.72;;;;;;;-140.72;100.00;53133.59;6271640;22;20411;-67
2023/01/30 01:15:10;;;;;;;5.40;2.58;;;;;;;-140.72;100.00;53141.69;6272965;22;19999;-67
2023/01/30 01:17:36;;;;;;;5.90;2.60;;;;;;;-140.72;100.00;53121.41;6271367;22;20345;-67
2023/01/30 01:20:02;;;;;;;5.85;2.35;;;;;;;-140.72;100.00;53113.28;6272195;22;20014;-69
2023/01/30 01:22:27;;;;;;;4.40;2.50;;;;;;;-140.72;100.00;53123.44;6272435;22;20000;-68
2023/01/30 01:24:53;;;;;;;2.53;1.33;;;;;;;-140.72;100.00;53123.44;6272955;22;20007;-68
2023/01/30 01:27:18;;;;;;;5.32;1.85;;;;;;;-140.72;100.00;53119.38;6271975;22;19995;-68
2023/01/30 01:29:44;;;;;;;7.97;2.13;;;;;;;-140.72;100.00;53119.38;6272941;22;20288;-67
2023/01/30 01:32:09;;;;;;;6.47;2.13;;;;;;;-140.72;100.00;53109.22;6272339;22;20020;-68
2023/01/30 01:34:35;;;;;;;5.53;2.03;;;;;;;-140.72;100.00;53137.66;6272519;22;20042;-68
2023/01/30 01:37:00;;;;;;;5.00;2.47;;;;;;;-140.72;100.00;53129.53;6272074;22;20067;-68
2023/01/30 01:41:00;;;;;;;3.50;1.52;;;;;;;-140.72;100.00;53117.34;6272855;22;20472;-68
2023/01/30 01:42:11;;;;;;;3.88;1.73;;;;;;;-140.72;100.00;53125.47;6271521;22;20011;-67
2023/01/30 01:45:17;;;;;;;3.63;1.35;;;;;;;-140.72;100.00;53123.44;6272758;22;20007;-69
2023/01/30 01:48:08;;;;;;;3.20;1.88;;;;;;;-140.72;100.00;53133.59;6271684;22;20019;-68
2023/01/30 01:50:42;;;;;;;10.80;1.75;;;;;;;-140.72;100.00;53127.50;6272801;22;19995;-69
2023/01/30 01:53:10;;;;;;;4.45;1.35;;;;;;;-140.72;100.00;53090.97;6272329;22;20024;-68
2023/01/30 01:55:37;;;;;;;2.90;1.73;;;;;;;-140.72;100.00;53121.41;6272129;22;20078;-69
2023/01/30 01:58:13;;;;;;;3.13;1.38;;;;;;;-140.72;100.00;53137.66;6271719;22;20004;-69
2023/01/30 02:00:38;;;;;;;4.20;1.95;;;;;;;-140.72;100.00;53141.69;6273014;22;19996;-69
2023/01/30 02:03:07;;;;;;;6.20;1.58;;;;;;;-140.72;100.00;53088.94;6271134;22;20042;-68
2023/01/30 02:05:38;;;;;;;3.17;1.33;;;;;;;-140.72;100.00;53139.69;6272612;22;20000;-68
2023/01/30 02:08:09;;;;;;;5.75;1.65;;;;;;;-140.72;100.00;53153.88;6271946;22;20003;-68
2023/01/30 02:11:02;;;;;;;2.10;1.10;;;;;;;-140.72;100.00;53166.06;6271795;22;20310;-69
2023/01/30 02:13:27;;;;;;;4.88;2.25;;;;;;;-140.72;100.00;53121.41;6272692;22;20030;-69
2023/01/30 02:15:56;;;;;;;5.65;1.40;;;;;;;-140.72;100.00;53149.81;6270934;22;20007;-68
2023/01/30 02:18:22;;;;;;;6.43;1.98;;;;;;;-140.72;100.00;53139.69;6273223;22;20276;-68
2023/01/30 02:20:47;;;;;;;7.50;1.98;;;;;;;-140.72;100.00;53129.53;6274004;22;20000;-68
2023/01/30 02:23:23;;;;;;;6.35;1.60;;;;;;;-140.72;100.00;53141.69;6274460;22;20004;-68
2023/01/30 02:26:03;;;;;;;3.85;1.75;;;;;;;-140.72;100.00;53139.69;6273948;22;20045;-68
2023/01/30 02:28:44;;;;;;;3.95;1.38;;;;;;;-140.72;100.00;53162.00;6274547;22;20078;-68
2023/01/30 02:31:23;;;;;;;6.35;2.05;;;;;;;-140.72;100.00;53131.56;6273946;22;19999;-69
2023/01/30 02:34:18;;;;;;;1.63;0.77;;;;;;;-140.72;100.00;53121.41;6274723;22;20006;-68
2023/01/30 02:36:49;;;;;;;5.15;2.15;;;;;;;-140.72;100.00;53121.41;6274810;22;20471;-69
2023/01/30 02:39:24;;;;;;;6.13;1.85;;;;;;;-140.72;100.00;53137.66;6273475;22;20018;-69
2023/01/30 02:42:23;;;;;;;3.42;1.77;;;;;;;-140.72;100.00;53141.69;6271751;22;20003;-67
2023/01/30 02:45:04;;;;;;;4.95;1.73;;;;;;;-140.72;100.00;53105.19;6273477;22;20027;-68
2023/01/30 02:47:38;;;;;;;6.38;1.67;;;;;;;-140.72;100.00;53121.41;6274762;22;20003;-68
2023/01/30 02:50:13;;;;;;;4.78;1.88;;;;;;;-140.72;100.00;53109.22;6274171;22;20027;-69
2023/01/30 02:52:42;;;;;;;4.47;1.88;;;;;;;-140.72;100.00;53121.41;6273867;22;20000;-69
2023/01/30 02:55:16;;;;;;;4.75;2.58;;;;;;;-140.72;100.00;53097.06;6273982;22;19995;-69
2023/01/30 02:57:41;;;;;;;3.65;1.48;;;;;;;-140.72;100.00;53166.06;6273692;22;20008;-68
2023/01/30 03:00:08;;;;;;;4.45;1.35;;;;;;;-140.72;100.00;53097.06;6273177;22;20000;-69
2023/01/30 03:02:42;;;;;;;8.85;1.65;;;;;;;-140.72;100.00;53129.53;6274787;22;19999;-67
2023/01/30 03:05:23;;;;;;;3.80;1.52;;;;;;;-140.72;100.00;53176.22;6273174;22;20008;-69
2023/01/30 03:08:04;;;;;;;5.38;1.90;;;;;;;-140.72;100.00;53111.25;6274045;22;20000;-68
2023/01/30 03:10:32;;;;;;;4.90;2.15;;;;;;;-140.72;100.00;53141.69;6274597;22;20003;-67
2023/01/30 03:13:09;;;;;;;3.55;1.45;;;;;;;-140.72;100.00;53125.47;6272863;22;20004;-68
2023/01/30 03:15:40;;;;;;;6.18;1.90;;;;;;;-140.72;100.00;53119.38;6273779;22;20004;-68
2023/01/30 03:18:06;;;;;;;1.80;1.05;;;;;;;-140.72;100.00;53139.69;6273374;22;20417;-66
2023/01/30 03:20:36;;;;;;;3.72;2.22;;;;;;;-140.72;100.00;53135.63;6273724;22;20023;-68
2023/01/30 03:23:04;;;;;;;;;;;;;;;-140.72;100.00;53127.50;6274457;22;20010;-68
2023/01/30 03:25:31;;;;;;;6.28;1.88;;;;;;;-140.72;100.00;53111.25;6274407;22;19980;-67
2023/01/30 03:27:57;;;;;;;4.13;1.60;;;;;;;-140.72;100.00;53149.81;6272580;22;19995;-67
2023/01/30 03:30:25;;;;;;;7.75;2.00;;;;;;;-140.72;100.00;53097.06;6273388;22;19999;-67
2023/01/30 03:32:50;;;;;;;3.55;1.48;;;;;;;-140.72;100.00;53131.56;6272338;22;20015;-67
2023/01/30 03:35:16;;;;;;;2.13;1.33;;;;;;;-140.72;100.00;53093.00;6272368;22;20287;-68
2023/01/30 03:37:43;;;;;;;13.00;2.53;;;;;;;-140.72;100.00;53088.94;6273589;22;20004;-68
2023/01/30 03:40:10;;;;;;;10.10;2.47;;;;;;;-140.72;100.00;53121.41;6272837;22;20058;-67
2023/01/30 03:42:35;;;;;;;6.78;1.63;;;;;;;-140.72;100.00;53113.28;6273622;22;20074;-68
2023/01/30 03:45:01;;;;;;;6.85;2.67;;;;;;;-140.72;100.00;53162.00;6273929;22;20446;-68
2023/01/30 03:47:26;;;;;;;4.68;1.25;;;;;;;-140.72;100.00;53131.56;6272782;22;20315;-68
2023/01/30 03:49:51;;;;;;;4.68;2.20;;;;;;;-140.72;100.00;53162.00;6273273;22;20034;-68
2023/01/30 03:52:17;;;;;;;7.10;1.40;;;;;;;-140.72;100.00;53127.50;6273826;22;20000;-68
2023/01/30 03:54:42;;;;;;;4.57;1.55;;;;;;;-140.72;100.00;53082.84;6273454;22;19999;-68
2023/01/30 03:57:08;;;;;;;8.60;1.88;;;;;;;-140.72;100.00;53111.25;6273220;22;19999;-68
2023/01/30 03:59:33;;;;;;;7.10;1.42;;;;;;;-140.72;100.00;53109.22;6273673;22;20000;-67
2023/01/30 04:01:58;;;;;;;9.90;1.63;;;;;;;-140.72;100.00;53157.94;6272698;22;20299;-68
2023/01/30 04:04:24;;;;;;;5.60;1.42;;;;;;;-140.72;100.00;53141.69;6273489;22;20000;-68
2023/01/30 04:06:49;;;;;;;8.52;1.33;;;;;;;-140.72;100.00;53131.56;6273327;22;20026;-68
2023/01/30 04:09:14;;;;;;;4.80;0.82;;;;;;;-140.72;100.00;53107.19;6273128;22;20000;-67
2023/01/30 04:11:40;;;;;;;7.93;1.52;;;;;;;-140.72;100.00;53125.47;6274047;22;19996;-68
2023/01/30 04:14:05;;;;;;;11.60;2.92;;;;;;;-140.72;100.00;53097.06;6273233;22;20000;-67
2023/01/30 04:16:34;;;;;;;7.50;1.77;;;;;;;-140.72;100.00;53145.75;6273461;22;19995;-67
2023/01/30 04:18:59;;;;;;;4.45;2.15;;;;;;;-140.72;100.00;53133.59;6273133;22;20000;-67
2023/01/30 04:21:25;;;;;;;14.32;1.88;;;;;;;-140.72;100.00;53159.97;6273261;22;20291;-67
2023/01/30 04:23:50;;;;;;;5.70;1.05;;;;;;;-140.72;100.00;53121.41;6272547;22;20027;-66
2023/01/30 04:26:15;;;;;;;4.18;1.77;;;;;;;-140.72;100.00;53127.50;6273843;22;20000;-67
2023/01/30 04:28:43;;;;;;;8.65;1.48;;;;;;;-140.72;100.00;53113.28;6273005;22;19999;-70
2023/01/30 04:31:09;;;;;;;2.22;1.10;;;;;;;-140.72;100.00;53162.00;6272794;22;20027;-67
2023/01/30 04:33:35;;;;;;;3.60;1.55;;;;;;;-140.72;100.00;53135.63;6273250;22;19996;-68
2023/01/30 04:36:02;;;;;;;4.18;1.20;;;;;;;-140.72;100.00;53155.91;6273353;22;20079;-67
2023/01/30 04:38:29;;;;;;;12.52;2.58;;;;;;;-140.72;100.00;53135.63;6272751;22;20023;-68
2023/01/30 04:40:56;;;;;;;5.03;1.77;;;;;;;-140.72;100.00;53149.81;6273250;22;20305;-67
2023/01/30 04:43:26;;;;;;;3.67;1.58;;;;;;;-140.72;100.00;53157.94;6272904;22;20004;-68
2023/01/30 04:45:53;;;;;;;5.97;1.52;;;;;;;-140.72;100.00;53133.59;6272734;22;20418;-68
2023/01/30 04:48:20;;;;;;;5.75;1.10;;;;;;;-140.72;100.00;53129.53;6273197;22;20000;-68
2023/01/30 04:50:52;;;;;;;9.55;1.33;;;;;;;-140.72;100.00;53131.56;6272093;22;20011;-67
2023/01/30 04:53:19;;;;;;;8.82;1.23;;;;;;;-140.72;100.00;53127.50;6273541;22;20425;-69
2023/01/30 04:55:45;;;;;;;6.20;1.45;;;;;;;-140.72;100.00;53121.41;6272909;22;20303;-68
2023/01/30 04:58:11;;;;;;;1.77;0.63;;;;;;;-140.72;100.00;53141.69;6271874;22;20054;-68
2023/01/30 05:00:36;;;;;;;1.98;1.15;;;;;;;-140.72;100.00;53145.75;6272943;22;20000;-68
2023/01/30 05:03:02;;;;;;;8.18;1.65;;;;;;;-140.72;100.00;53093.00;6272746;22;19999;-68
2023/01/30 05:05:27;;;;;;;1.75;0.82;;;;;;;-140.72;100.00;53109.22;6270737;22;20011;-67
2023/01/30 05:07:53;;;;;;;9.35;1.42;;;;;;;-140.72;100.00;53151.84;6272182;22;20002;-69
2023/01/30 05:10:19;;;;;;;4.85;1.58;;;;;;;-140.72;100.00;53145.75;6273004;22;20071;-69
2023/01/30 05:12:45;;;;;;;1.92;0.80;;;;;;;-140.72;100.00;53166.06;6272485;22;20065;-67
2023/01/30 05:15:12;;;;;;;8.05;1.42;;;;;;;-140.72;100.00;53123.44;6273111;22;19996;-68
2023/01/30 05:17:38;;;;;;;4.05;1.48;;;;;;;-140.72;100.00;53178.22;6273201;22;20365;-68
2023/01/30 05:20:04;;;;;;;6.20;1.20;;;;;;;-140.72;100.00;53125.47;6272213;22;20057;-67
2023/01/30 05:22:30;;;;;;;3.63;0.85;;;;;;;-140.72;100.00;53107.19;6271439;22;20069;-67
2023/01/30 05:24:55;;;;;;;1.10;0.73;;;;;;;-140.72;100.00;53123.44;6272974;22;20406;-67
2023/01/30 05:27:21;;;;;;;4.95;1.55;;;;;;;-140.72;100.00;53105.19;6271675;22;20006;-67
2023/01/30 05:29:46;;;;;;;6.95;1.20;;;;;;;-140.72;100.00;53093.00;6272556;22;20003;-67
2023/01/30 05:32:13;;;;;;;5.47;1.23;;;;;;;-140.72;100.00;53141.69;6271802;22;20000;-67
2023/01/30 05:34:38;;;;;;;3.90;0.95;;;;;;;-140.72;100.00;53078.78;6271917;22;19995;-68
2023/01/30 05:37:04;;;;;;;3.17;1.48;;;;;;;-140.72;100.00;53172.16;6271770;22;20494;-67
2023/01/30 05:39:29;;;;;;;6.28;1.10;;;;;;;-140.72;100.00;53139.69;6272984;22;20410;-69
2023/01/30 05:41:54;;;;;;;1.58;0.82;;;;;;;-140.72;100.00;53133.59;6271823;22;20087;-69
2023/01/30 05:44:23;;;;;;;3.72;1.33;;;;;;;-140.72;100.00;53086.91;6272626;22;20270;-68
2023/01/30 05:46:48;;;;;;;2.33;0.98;;;;;;;-140.72;100.00;53139.69;6271244;22;19995;-69
2023/01/30 05:49:14;;;;;;;7.32;1.33;;;;;;;-140.72;100.00;53162.00;6272875;22;20006;-69
2023/01/30 05:51:39;;;;;;;6.15;1.52;;;;;;;-140.72;100.00;53162.00;6272943;22;20422;-69
2023/01/30 05:54:05;;;;;;;9.45;1.45;;;;;;;-140.72;100.00;53166.06;6271189;22;20106;-69
2023/01/30 05:56:32;;;;;;;2.58;1.10;;;;;;;-140.72;100.00;53139.69;6273065;22;20421;-69
2023/01/30 05:59:01;;;;;;;9.23;2.17;;;;;;;-140.72;100.00;53164.03;6272099;22;20353;-68
2023/01/30 06:01:28;;;;;;;10.02;1.55;;;;;;;-140.72;100.00;53149.81;6272064;22;20007;-70
2023/01/30 06:03:53;;;;;;;2.50;0.60;;;;;;;-140.72;100.00;53139.69;6271882;22;20362;-68
2023/01/30 06:06:19;;;;;;;2.70;0.85;;;;;;;-140.72;100.00;53135.63;6272507;22;19995;-68
2023/01/30 06:08:45;;;;;;;7.53;1.98;;;;;;;-140.72;100.00;53184.31;6271182;22;20015;-68
2023/01/30 06:11:13;;;;;;;5.65;1.45;;;;;;;-140.72;100.00;53157.94;6272617;22;19996;-69
2023/01/30 06:13:38;;;;;;;5.03;1.60;;;;;;;-140.72;100.00;53149.81;6272115;22;20436;-68
2023/01/30 06:16:05;;;;;;;6.80;1.67;;;;;;;-140.72;100.00;53125.47;6271604;22;20000;-68
2023/01/30 06:18:33;;;;;;;4.65;1.55;;;;;;;-140.72;100.00;53168.09;6272382;22;19995;-69
2023/01/30 06:20:59;;;;;;;5.68;2.45;;;;;;;-140.72;100.00;53166.06;6272405;22;20003;-69
2023/01/30 06:23:25;;;;;;;3.50;1.55;;;;;;;-140.72;100.00;53184.31;6270835;22;20000;-69
2023/01/30 06:25:51;;;;;;;7.82;1.48;;;;;;;-140.72;100.00;53137.66;6272285;22;20008;-67
2023/01/30 06:28:18;;;;;;;5.53;2.00;;;;;;;-140.72;100.00;53168.09;6272390;22;19996;-70
2023/01/30 06:30:47;;;;;;;2.83;0.93;;;;;;;-140.72;100.00;53157.94;6271269;22;20022;-68
2023/01/30 06:33:13;;;;;;;16.60;2.08;;;;;;;-140.72;100.00;53172.16;6271942;22;20049;-70
2023/01/30 06:35:39;;;;;;;7.78;1.80;;;;;;;-140.72;100.00;53145.75;6271653;22;20000;-68
2023/01/30 06:38:05;;;;;;;10.70;1.75;;;;;;;-140.72;100.00;53157.94;6271047;22;20004;-69
2023/01/30 06:40:31;;;;;;;9.73;1.75;;;;;;;-140.72;100.00;53131.56;6272246;22;20022;-69
2023/01/30 06:42:56;;;;;;;5.55;1.27;;;;;;;-140.72;100.00;53170.13;6272206;22;20215;-69
2023/01/30 06:45:22;;;;;;;7.78;1.75;;;;;;;-140.72;100.00;53141.69;6271021;22;20061;-69
2023/01/30 06:47:55;;;;;;;15.68;2.53;;;;;;;-140.72;100.00;53123.44;6268249;22;19999;-68
2023/01/30 06:50:22;;;;;;;6.93;1.15;;;;;;;-140.72;100.00;53157.94;6266559;22;20004;-68
2023/01/30 06:52:49;;;;;;;8.60;2.45;;;;;;;-140.72;100.00;53159.97;6263655;22;20290;-70
2023/01/30 06:55:17;;;;;;;6.70;1.98;;;;;;;-140.72;100.00;53166.06;6268025;22;20070;-70
2023/01/30 06:57:44;;;;;;;5.78;1.48;;;;;;;-140.72;100.00;53127.50;6269223;22;19999;-70
2023/01/30 07:00:13;;;;;;;7.10;2.28;;;;;;;-140.72;100.00;53155.91;6268213;22;20000;-69
2023/01/30 07:02:39;;;;;;;8.05;1.98;;;;;;;-140.72;100.00;53119.38;6266817;22;20262;-69
2023/01/30 07:05:06;;;;;;;12.18;2.63;;;;;;;-140.72;100.00;53157.94;6265901;22;20379;-69
2023/01/30 07:07:32;;;;;;;3.53;1.30;;;;;;;-140.72;100.00;53131.56;6269135;22;20000;-69
2023/01/30 07:09:58;;;;;;;9.30;2.00;;;;;;;-140.72;100.00;53172.16;6268576;22;20049;-70
2023/01/30 07:12:25;;;;;;;5.47;1.08;;;;;;;-140.72;100.00;53188.38;6267759;22;20004;-70
2023/01/30 07:14:51;;;;;;;6.65;1.17;;;;;;;-140.72;100.00;53129.53;6267651;22;20086;-69
2023/01/30 07:17:20;;;;;;;2.33;0.93;;;;;;;-140.72;100.00;53170.13;6272993;22;19996;-69
2023/01/30 07:19:46;;;;;;;4.60;1.67;;;;;;;-140.72;100.00;53141.69;6271317;22;20065;-70
2023/01/30 07:22:12;;;;;;;7.10;1.30;;;;;;;-140.72;100.00;53164.03;6273034;22;20082;-69
2023/01/30 07:24:38;;;;;;;7.07;1.40;;;;;;;-140.72;100.00;53145.75;6270738;22;20034;-70
2023/01/30 07:27:07;;;;;;;10.75;1.98;;;;;;;-140.72;100.00;53178.22;6271064;22;20008;-71
2023/01/30 07:29:34;;;;;;;9.40;1.73;;;;;;;-140.72;100.00;53121.41;6272660;22;20003;-69
2023/01/30 07:31:59;;;;;;;4.03;1.48;;;;;;;-140.72;100.00;53147.78;6272843;22;19999;-69
2023/01/30 07:34:24;;;;;;;3.47;1.83;;;;;;;-140.72;100.00;53188.38;6272922;22;20003;-70
2023/01/30 07:36:50;;;;;;;8.20;1.73;;;;;;;-140.72;100.00;53202.59;6272385;22;20010;-70
2023/01/30 07:39:15;;;;;;;10.98;2.08;;;;;;;-140.72;100.00;53157.94;6273039;22;20003;-71
2023/01/30 07:41:40;;;;;;;9.70;1.58;;;;;;;-140.72;100.00;53119.38;6273592;22;20070;-69
2023/01/30 07:44:06;;;;;;;7.90;1.50;;;;;;;-140.72;100.00;53153.88;6273661;22;20022;-69
2023/01/30 07:46:33;;;;;;;9.52;1.33;;;;;;;-140.72;100.00;53180.25;6272652;22;20006;-71
2023/01/30 07:49:03;;;;;;;13.48;1.45;;;;;;;-140.72;100.00;53145.75;6273030;22;19999;-68
2023/01/30 07:51:29;;;;;;;;;;;;;;;-140.72;100.00;53151.84;6274128;22;20083;-68
2023/01/30 07:53:57;;;;;;;4.03;0.80;;;;;;;-140.72;100.00;53162.00;6271387;22;20336;-68
2023/01/30 07:56:23;;;;;;;2.22;1.38;;;;;;;-140.72;100.00;53129.53;6270017;22;20008;-68
2023/01/30 07:58:49;;;;;;;6.50;1.88;;;;;;;-140.72;100.00;53119.38;6273318;22;20080;-68
2023/01/30 08:01:16;;;;;;;4.55;1.33;;;;;;;-140.72;100.00;53115.31;6272084;22;19999;-69
2023/01/30 08:03:44;;;;;;;11.68;1.55;;;;;;;-140.72;100.00;53151.84;6271070;22;20006;-68
2023/01/30 08:06:11;;;;;;;2.88;1.17;;;;;;;-140.72;100.00;53182.28;6272727;22;20077;-67
2023/01/30 08:08:36;;;;;;;9.60;1.27;;;;;;;-140.72;100.00;53109.22;6271181;22;20355;-67
2023/01/30 08:11:02;;;;;;;6.25;1.85;;;;;;;-140.72;100.00;53147.78;6271776;22;20031;-67
2023/01/30 08:13:27;;;;;;;4.13;1.65;;;;;;;-140.72;100.00;53151.84;6272258;22;20062;-69
2023/01/30 08:16:05;;;;;;;3.95;1.55;;;;;;;-140.72;100.00;53141.69;6271673;22;20027;-68
2023/01/30 08:18:32;;;;;;;4.28;2.08;;;;;;;-140.72;100.00;53180.25;6272416;22;20446;-69
2023/01/30 08:20:59;;;;;;;10.82;1.52;;;;;;;-140.72;100.00;53172.16;6272632;22;20353;-68
2023/01/30 08:23:24;;;;;;;8.25;1.42;;;;;;;-140.72;100.00;53153.88;6271831;22;20298;-68
2023/01/30 08:25:54;;;;;;;7.35;0.80;;;;;;;-140.72;100.00;53113.28;6272264;22;20007;-68
2023/01/30 08:28:19;;;;;;;7.80;1.70;;;;;;;-140.72;100.00;53115.31;6272071;22;20000;-69
2023/01/30 08:30:45;;;;;;;3.92;1.23;;;;;;;-140.72;100.00;53117.34;6271923;22;20003;-67
2023/01/30 08:33:11;;;;;;;3.95;1.40;;;;;;;-140.72;100.00;53115.31;6271893;22;20346;-68
2023/01/30 08:35:37;;;;;;;7.78;1.92;;;;;;;-140.72;100.00;53143.72;6268680;22;20015;-68
2023/01/30 08:38:05;;;;;;;5.53;1.00;;;;;;;-140.72;100.00;53153.88;6271113;22;20235;-68
2023/01/30 08:40:31;;;;;;;4.38;1.70;;;;;;;-140.72;100.00;53147.78;6272361;22;20057;-68
2023/01/30 08:42:56;;;;;;;3.28;0.88;;;;;;;-140.72;100.00;53125.47;6271451;22;20008;-67
2023/01/30 08:45:22;;;;;;;6.85;1.85;;;;;;;-140.72;100.00;53149.81;6273711;22;20023;-70
2023/01/30 08:47:47;;;;;;;9.23;1.08;;;;;;;-140.72;100.00;53103.16;6272964;22;20082;-68
2023/01/30 08:50:12;;;;;;;2.80;0.95;;;;;;;-140.72;100.00;53103.16;6271567;22;20004;-68
2023/01/30 08:52:38;;;;;;;12.68;1.65;;;;;;;-140.72;100.00;53137.66;6271981;22;20175;-68
2023/01/30 08:55:04;;;;;;;12.23;1.60;;;;;;;-140.72;100.00;53090.97;6271327;22;20010;-69
2023/01/30 08:57:31;;;;;;;5.57;1.63;;;;;;;-140.72;100.00;53157.94;6272398;22;20000;-68
2023/01/30 08:59:56;;;;;;;6.60;1.30;;;;;;;-140.72;100.00;53076.75;6271966;22;20011;-68
2023/01/30 09:02:22;;;;;;;5.47;0.90;;;;;;;-140.72;100.00;53072.69;6272247;22;20306;-69
2023/01/30 09:04:47;;;;;;;7.53;1.38;;;;;;;-140.72;100.00;53095.03;6271469;22;19995;-69
2023/01/30 09:07:12;;;;;;;7.03;1.45;;;;;;;-140.72;100.00;53103.16;6272040;22;20034;-68
2023/01/30 09:09:38;;;;;;;4.45;1.10;;;;;;;-140.72;100.00;53080.81;6272406;22;20034;-69
2023/01/30 09:12:04;;;;;;;8.02;1.52;;;;;;;-140.72;100.00;53086.91;6271139;22;20468;-68
2023/01/30 09:14:29;;;;;;;10.27;2.13;;;;;;;-140.72;100.00;53117.34;6271456;22;20075;-68
2023/01/30 09:16:54;;;;;;;2.42;1.25;;;;;;;-140.72;100.00;53062.56;6271484;22;20003;-68
2023/01/30 09:19:24;;;;;;;2.13;0.60;;;;;;;-140.72;100.00;53084.88;6271126;22;19999;-68
2023/01/30 09:21:51;;;;;;;11.27;1.77;;;;;;;-140.72;100.00;53135.63;6270979;22;20075;-69
2023/01/30 09:24:17;;;;;;;4.97;1.05;;;;;;;-140.72;100.00;53133.59;6271704;22;19999;-69
2023/01/30 09:26:44;;;;;;;6.65;1.40;;;;;;;-140.72;100.00;53080.81;6270934;22;20003;-68
2023/01/30 09:29:13;;;;;;;7.60;2.20;;;;;;;-140.72;100.00;53093.00;6270613;22;19999;-68
2023/01/30 09:31:39;;;;;;;5.15;2.05;;;;;;;-140.72;100.00;53149.81;6271783;22;19996;-69
2023/01/30 09:34:05;;;;;;;6.97;1.70;;;;;;;-140.72;100.00;53097.06;6270823;22;20008;-68
2023/01/30 09:36:34;;;;;;;2.63;1.27;;;;;;;-140.72;100.00;53082.84;6270510;22;19995;-68
2023/01/30 09:38:59;;;;;;;8.63;1.75;;;;;;;-140.72;100.00;53070.69;6269649;22;20027;-68
2023/01/30 09:41:43;;;;;;;7.65;1.23;;;;;;;-140.72;100.00;53064.59;6271971;22;20023;-68
2023/01/30 09:44:29;;;;;;;5.28;1.02;;;;;;;-140.72;100.00;53093.00;6270641;22;20402;-68
2023/01/30 09:47:02;;;;;;;3.55;0.82;;;;;;;-140.72;100.00;53072.69;6270103;22;20052;-68
2023/01/30 09:50:06;;;;;;;7.72;1.33;;;;;;;-140.72;100.00;53093.00;6272159;22;19999;-68
2023/01/30 09:52:53;;;;;;;2.72;0.73;;;;;;;-140.72;100.00;53080.81;6225776;22;20007;-68
2023/01/30 09:55:22;;;;;;;9.20;1.88;;;;;;;-140.72;100.00;53084.88;6271539;22;20006;-67
2023/01/30 09:57:51;;;;;;;4.38;0.45;;;;;;;-140.72;100.00;53088.94;6270700;22;20029;-67
2023/01/30 10:00:34;;;;;;;5.93;1.60;;;;;;;-140.72;100.00;53080.81;6270997;22;20019;-68
2023/01/30 10:03:44;;;;;;;2.30;1.13;;;;;;;-140.72;100.00;53088.94;6271849;22;20015;-69
2023/01/30 10:06:13;;;;;;;7.82;1.45;;;;;;;-140.72;100.00;53076.75;6271374;22;20007;-68
2023/01/30 10:08:57;;;;;;;4.95;1.15;;;;;;;-140.72;100.00;53080.81;6271078;22;19995;-68
2023/01/30 10:12:06;;;;;;;3.83;0.73;;;;;;;-140.72;100.00;53068.66;6272258;22;20311;-67
2023/01/30 10:14:43;;;;;;;7.15;1.60;;;;;;;-140.72;100.00;53070.69;6117788;23;20109;-68
2023/01/30 10:17:39;;;;;;;8.10;1.48;;;;;;;-140.72;100.00;53068.66;6118454;23;20002;-68
2023/01/30 10:20:49;;;;;;;6.65;1.38;;;;;;;-140.72;100.00;53072.69;6231151;22;20004;-69
2023/01/30 10:23:29;;;;;;;4.57;1.35;;;;;;;-140.72;100.00;53062.56;6117127;23;20250;-68
2023/01/30 10:26:00;;;;;;;3.85;0.80;;;;;;;-140.72;100.00;53058.50;6117973;23;20009;-69
2023/01/30 10:28:31;;;;;;;5.95;1.92;;;;;;;-140.72;100.00;53109.22;6117037;23;20106;-69
2023/01/30 10:31:06;;;;;;;2.60;0.65;;;;;;;-140.72;100.00;53068.66;6118124;23;20025;-69
2023/01/30 10:33:43;;;;;;;3.92;0.82;;;;;;;-140.72;100.00;53099.09;6123716;22;20060;-69
2023/01/30 10:36:13;;;;;;;5.90;0.95;;;;;;;-140.72;100.00;53052.41;6270979;22;20004;-70
2023/01/30 10:38:52;;;;;;;9.40;2.38;;;;;;;-140.72;100.00;53078.78;6272202;22;20007;-68
2023/01/30 10:41:26;;;;;;;8.77;1.65;;;;;;;-140.72;100.00;53064.59;6271895;22;20312;-69
2023/01/30 10:44:11;;;;;;;7.97;1.58;;;;;;;-140.72;100.00;53078.78;6273293;22;20000;-69
2023/01/30 10:47:23;;;;;;;10.55;1.80;;;;;;;-140.72;100.00;53078.78;6273242;22;20049;-69
2023/01/30 10:49:52;;;;;;;10.25;1.27;;;;;;;-140.72;100.00;53050.38;6203076;22;20039;-69
2023/01/30 10:52:29;;;;;;;9.73;2.00;;;;;;;-140.72;100.00;53068.66;6273037;22;20313;-69
2023/01/30 10:55:00;;;;;;;5.95;1.58;;;;;;;-140.72;100.00;53078.78;6272831;22;20041;-68
2023/01/30 10:57:49;;;;;;;10.55;1.52;;;;;;;-140.72;100.00;53044.28;6272692;22;20037;-68
2023/01/30 11:00:29;;;;;;;8.68;1.38;;;;;;;-140.72;100.00;53064.59;6245405;22;20007;-68
2023/01/30 11:03:14;;;;;;;9.10;1.38;;;;;;;-140.72;100.00;53084.88;6273129;22;20000;-68
2023/01/30 11:05:46;;;;;;;5.38;0.98;;;;;;;-140.72;100.00;53084.88;6272375;22;20564;-68
2023/01/30 11:08:25;;;;;;;7.90;1.45;;;;;;;-140.72;100.00;53044.28;6273128;22;20000;-69
2023/01/30 11:10:52;;;;;;;4.13;1.10;;;;;;;-140.72;100.00;53070.69;6273093;22;20457;-68
2023/01/30 11:13:20;;;;;;;10.65;1.92;;;;;;;-140.72;100.00;53068.66;6272599;22;20223;-68
2023/01/30 11:15:49;;;;;;;7.05;1.83;;;;;;;-140.72;100.00;53056.47;6272785;22;20010;-68
2023/01/30 11:18:16;;;;;;;11.65;1.45;;;;;;;-140.72;100.00;53072.69;6272453;22;20003;-68
2023/01/30 11:20:47;;;;;;;9.20;2.30;;;;;;;-140.72;100.00;53115.31;6273999;22;19996;-68
2023/01/30 11:23:26;;;;;;;5.25;1.23;;;;;;;-140.72;100.00;53040.22;6272831;22;20070;-68
2023/01/30 11:25:56;;;;;;;15.60;2.30;;;;;;;-140.72;100.00;53070.69;6272271;22;20093;-69